Time;durP1;ratioP1;P1;durP2;ratioP2;P2;SDS_P1;SDS_P2;PMS_P1;PMS_P2;Temp;Humidity;BMP_temperature;BMP_pressure;BME280_temperature;BME280_humidity;BME280_pressure;Samples;Min_cycle;Max_cycle;Signal;HPM_P1;HPM_P2
2022/08/10 00:00:20;;;;;;;;;;;26.30;55.80;26.20;99683.00;;;;347991;27;90753;-85
2022/08/10 00:00:32;;;;;;;;;;;26.30;55.70;26.30;99686.00;;;;348805;27;83143;-85
2022/08/10 00:00:46;;;;;;;;;;;26.30;55.80;26.40;99681.00;;;;346918;28;89186;-85
2022/08/10 00:00:58;;;;;;;;;;;26.30;55.80;26.50;99691.00;;;;345888;28;83401;-84
2022/08/10 00:01:09;;;;;;;;;;;26.30;55.80;26.40;99689.00;;;;342750;28;90855;-85
2022/08/10 00:01:21;;;;;;;;;;;26.30;55.70;26.40;99687.00;;;;347349;28;83369;-84
2022/08/10 00:01:33;;;;;;;;;;;26.30;55.70;26.30;99686.00;;;;345542;28;89339;-85
2022/08/10 00:01:45;;;;;;;;;;;26.30;55.60;26.20;99685.00;;;;347376;28;83409;-85
2022/08/10 00:02:02;;;;;;;;;;;26.30;55.80;26.20;99689.00;;;;348241;27;90034;-85
2022/08/10 00:02:14;;;;;;;;;;;26.30;55.80;26.20;99692.00;;;;346014;28;83178;-85
2022/08/10 00:02:26;;;;;;;;;;;26.30;55.70;26.30;99689.00;;;;345616;28;89132;-85
2022/08/10 00:02:37;;;;;;;;;;;26.30;55.60;26.30;99691.00;;;;344529;28;83412;-85
2022/08/10 00:02:57;;;;;;;;;;;26.30;55.50;26.30;99683.00;;;;344160;28;89431;-85
2022/08/10 00:03:08;;;;;;;;;;;26.30;55.40;26.30;99691.00;;;;345997;28;82253;-85
2022/08/10 00:03:20;;;;;;;;;;;26.30;55.50;26.20;99686.00;;;;345462;28;89378;-84
2022/08/10 00:03:32;;;;;;;;;;;26.30;55.80;26.30;99684.00;;;;345999;28;83454;-85
2022/08/10 00:03:45;;;;;;;;;;;26.30;55.90;26.40;99687.00;;;;345508;28;91388;-84
2022/08/10 00:03:56;;;;;;;;;;;26.30;55.80;26.30;99692.00;;;;346315;28;83432;-84
2022/08/10 00:04:08;;;;;;;;;;;26.30;55.90;26.30;99686.00;;;;345515;28;93095;-85
2022/08/10 00:04:31;;;;;;;;;;;26.30;55.90;26.20;99694.00;;;;346062;28;82483;-85
2022/08/10 00:04:43;;;;;;;;;;;26.30;56.00;26.20;99688.00;;;;345472;28;90254;-85
2022/08/10 00:04:55;;;;;;;;;;;26.30;55.80;26.10;99688.00;;;;346007;28;83306;-85
2022/08/10 00:05:07;;;;;;;;;;;26.30;56.00;26.10;99691.00;;;;345618;28;88363;-85
2022/08/10 00:05:18;;;;;;;;;;;26.30;56.00;26.00;99685.00;;;;345966;28;83221;-85
2022/08/10 00:05:30;;;;;;;;;;;26.30;56.10;26.10;99683.00;;;;347026;28;88964;-84
2022/08/10 00:06:02;;;;;;;;;;;26.20;56.00;26.10;99689.00;;;;345831;28;83580;-85
2022/08/10 00:06:14;;;;;;;;;;;26.30;56.00;26.10;99688.00;;;;346787;28;89131;-85
2022/08/10 00:06:26;;;;;;;;;;;26.30;56.10;26.10;99691.00;;;;347427;28;83129;-84
2022/08/10 00:06:38;;;;;;;;;;;26.30;56.10;26.10;99684.00;;;;345397;28;92291;-85
2022/08/10 00:06:53;;;;;;;;;;;26.20;56.00;26.10;99684.00;;;;345930;28;83305;-85
2022/08/10 00:07:05;;;;;;;;;;;26.30;56.00;26.20;99690.00;;;;343938;28;91457;-85
2022/08/10 00:07:17;;;;;;;;;;;26.20;55.80;26.20;99683.00;;;;344371;28;83335;-84
2022/08/10 00:07:29;;;;;;;;;;;26.20;55.90;26.20;99685.00;;;;345574;28;88931;-84
2022/08/10 00:07:41;;;;;;;;;;;26.20;56.00;26.20;99687.00;;;;347354;28;82463;-85
2022/08/10 00:07:53;;;;;;;;;;;26.20;56.10;26.20;99681.00;;;;346976;28;89026;-85
2022/08/10 00:08:04;;;;;;;;;;;26.20;56.20;26.10;99683.00;;;;347347;28;83188;-85
2022/08/10 00:08:16;;;;;;;;;;;26.20;56.30;26.10;99686.00;;;;345553;28;89501;-85
2022/08/10 00:08:35;;;;;;;;;;;26.20;56.30;26.00;99694.00;;;;345906;28;83473;-85
2022/08/10 00:08:47;;;;;;;;;;;26.20;56.30;26.10;99687.00;;;;348282;27;89979;-85
2022/08/10 00:08:59;;;;;;;;;;;26.20;56.50;26.00;99685.00;;;;348747;27;83528;-85
2022/08/10 00:09:10;;;;;;;;;;;26.20;56.50;26.00;99684.00;;;;345494;28;89474;-85
2022/08/10 00:09:22;;;;;;;;;;;26.20;56.60;26.00;99689.00;;;;343041;28;83426;-85
2022/08/10 00:09:34;;;;;;;;;;;26.20;56.60;26.00;99688.00;;;;342750;28;92267;-85
2022/08/10 00:10:02;;;;;;;;;;;26.20;56.40;26.20;99685.00;;;;345679;28;84196;-85
2022/08/10 00:10:15;;;;;;;;;;;26.20;56.10;26.30;99690.00;;;;345442;28;90635;-85
2022/08/10 00:10:27;;;;;;;;;;;26.20;56.10;26.30;99687.00;;;;344591;28;83301;-85
2022/08/10 00:10:38;;;;;;;;;;;26.20;56.10;26.20;99688.00;;;;344041;28;90890;-85
2022/08/10 00:10:54;;;;;;;;;;;26.20;56.10;26.20;99685.00;;;;344459;28;83447;-85
2022/08/10 00:11:06;;;;;;;;;;;26.20;56.10;26.10;99692.00;;;;344170;28;88659;-85
2022/08/10 00:11:27;;;;;;;;;;;26.20;56.20;26.20;99687.00;;;;345483;28;83732;-85
2022/08/10 00:11:38;;;;;;;;;;;26.10;56.20;26.20;99691.00;;;;349666;27;90743;-85
2022/08/10 00:11:50;;;;;;;;;;;26.20;56.40;26.20;99685.00;;;;350035;27;83368;-84
2022/08/10 00:12:02;;;;;;;;;;;26.10;56.10;26.20;99691.00;;;;349721;27;88952;-85
2022/08/10 00:12:14;;;;;;;;;;;26.10;56.00;26.10;99684.00;;;;347230;28;82296;-85
2022/08/10 00:12:26;;;;;;;;;;;26.20;56.10;26.20;99685.00;;;;342868;28;89089;-84
2022/08/10 00:12:57;;;;;;;;;;;26.20;56.10;26.20;99681.00;;;;347265;28;83502;-85
2022/08/10 00:13:09;;;;;;;;;;;26.10;56.10;26.10;99680.00;;;;349858;27;88041;-85
2022/08/10 00:13:21;;;;;;;;;;;26.10;56.20;26.20;99688.00;;;;351581;27;83915;-84
2022/08/10 00:13:33;;;;;;;;;;;26.20;56.30;26.30;99696.00;;;;348311;27;89531;-85
2022/08/10 00:13:45;;;;;;;;;;;26.10;56.20;26.30;99686.00;;;;348664;27;83143;-85
2022/08/10 00:13:56;;;;;;;;;;;26.10;56.10;26.20;99683.00;;;;348286;27;89174;-84
2022/08/10 00:14:11;;;;;;;;;;;26.20;56.40;26.30;99690.00;;;;347796;27;85923;-85
2022/08/10 00:14:22;;;;;;;;;;;26.20;56.30;26.40;99684.00;;;;344129;28;91981;-85
2022/08/10 00:14:34;;;;;;;;;;;26.20;56.40;26.30;99687.00;;;;346029;28;83174;-85
2022/08/10 00:14:46;;;;;;;;;;;26.20;56.30;26.40;99680.00;;;;346817;27;91935;-85
2022/08/10 00:14:59;;;;;;;;;;;26.20;56.20;26.30;99678.00;;;;345850;28;83383;-84
2022/08/10 00:15:14;;;;;;;;;;;26.20;56.10;26.40;99682.00;;;;344202;28;92285;-85
2022/08/10 00:15:45;;;;;;;;;;;26.20;56.10;26.20;99683.00;;;;346056;28;82512;-85
2022/08/10 00:16:05;;;;;;;;;;;26.20;56.10;26.20;99684.00;;;;346724;28;93238;-85
2022/08/10 00:16:17;;;;;;;;;;;26.20;56.30;26.30;99676.00;;;;345932;28;83432;-85
2022/08/10 00:16:28;;;;;;;;;;;26.20;56.20;26.30;99677.00;;;;345470;28;90403;-84
2022/08/10 00:16:40;;;;;;;;;;;26.20;56.30;26.30;99676.00;;;;345856;28;83213;-85
2022/08/10 00:16:52;;;;;;;;;;;26.20;56.20;26.20;99683.00;;;;346817;28;90949;-85
2022/08/10 00:17:03;;;;;;;;;;;26.20;56.30;26.20;99676.00;;;;345929;28;83373;-85
2022/08/10 00:17:15;;;;;;;;;;;26.20;56.30;26.20;99677.00;;;;346879;28;91963;-85
2022/08/10 00:17:27;;;;;;;;;;;26.20;56.30;26.10;99686.00;;;;347392;28;83242;-85
2022/08/10 00:17:39;;;;;;;;;;;26.20;56.50;26.10;99672.00;;;;346970;28;88715;-84
2022/08/10 00:17:50;;;;;;;;;;;26.20;56.40;26.10;99675.00;;;;347413;28;83153;-85
2022/08/10 00:18:02;;;;;;;;;;;26.20;56.20;26.10;99685.00;;;;345233;28;92655;-85
2022/08/10 00:18:14;;;;;;;;;;;26.20;56.40;26.10;99681.00;;;;347214;28;82571;-85
2022/08/10 00:18:45;;;;;;;;;;;26.10;56.40;26.10;99684.00;;;;344132;28;91473;-85
2022/08/10 00:18:57;;;;;;;;;;;26.10;56.40;26.10;99678.00;;;;344556;28;83168;-85
2022/08/10 00:19:09;;;;;;;;;;;26.10;56.50;26.10;99680.00;;;;344038;28;90709;-85
2022/08/10 00:19:21;;;;;;;;;;;26.10;56.40;26.10;99673.00;;;;347244;28;82493;-85
2022/08/10 00:19:33;;;;;;;;;;;26.10;56.40;26.10;99676.00;;;;346783;28;88796;-85
2022/08/10 00:20:05;;;;;;;;;;;26.10;56.70;26.20;99682.00;;;;347294;28;82499;-85
2022/08/10 00:20:19;;;;;;;;;;;26.10;56.50;26.20;99671.00;;;;346953;28;89029;-85
2022/08/10 00:20:31;;;;;;;;;;;26.10;56.30;26.20;99673.00;;;;347333;28;82401;-85
2022/08/10 00:20:42;;;;;;;;;;;26.10;56.40;26.20;99677.00;;;;344012;28;90451;-85
2022/08/10 00:20:54;;;;;;;;;;;26.10;56.60;26.20;99674.00;;;;345868;28;83313;-85
2022/08/10 00:21:06;;;;;;;;;;;26.10;56.50;26.20;99678.00;;;;345566;28;89982;-85
2022/08/10 00:21:18;;;;;;;;;;;26.10;56.70;26.10;99667.00;;;;345914;28;82340;-85
2022/08/10 00:21:30;;;;;;;;;;;26.10;56.80;26.10;99680.00;;;;345529;28;89099;-85
2022/08/10 00:21:42;;;;;;;;;;;26.10;56.50;26.20;99676.00;;;;344608;28;82408;-85
2022/08/10 00:21:53;;;;;;;;;;;26.10;56.40;26.30;99667.00;;;;346979;28;89397;-85
2022/08/10 00:22:05;;;;;;;;;;;26.10;56.40;26.20;99671.00;;;;347238;28;83337;-85
2022/08/10 00:22:17;;;;;;;;;;;26.10;56.50;26.10;99681.00;;;;346794;28;92738;-85
2022/08/10 00:22:28;;;;;;;;;;;26.10;56.80;26.20;99673.00;;;;343231;28;83437;-85
2022/08/10 00:22:40;;;;;;;;;;;26.10;56.70;26.20;99668.00;;;;344112;28;90213;-85
2022/08/10 00:23:08;;;;;;;;;;;26.10;56.60;26.10;99675.00;;;;345976;28;83443;-85
2022/08/10 00:23:19;;;;;;;;;;;26.10;56.70;26.10;99674.00;;;;345511;28;89414;-85
2022/08/10 00:23:32;;;;;;;;;;;26.10;56.90;26.10;99671.00;;;;345951;28;84191;-85
2022/08/10 00:23:44;;;;;;;;;;;26.10;56.70;26.20;99670.00;;;;346925;28;89384;-85
2022/08/10 00:23:55;;;;;;;;;;;26.10;56.70;26.20;99670.00;;;;345972;28;83374;-85
2022/08/10 00:24:07;;;;;;;;;;;26.10;56.60;26.30;99676.00;;;;348329;27;89154;-85
2022/08/10 00:24:19;;;;;;;;;;;26.10;56.60;26.20;99678.00;;;;348585;27;83520;-84
2022/08/10 00:24:30;;;;;;;;;;;26.10;56.60;26.30;99669.00;;;;345350;28;89035;-85
2022/08/10 00:24:42;;;;;;;;;;;26.10;56.50;26.30;99676.00;;;;347250;28;82315;-85
2022/08/10 00:24:56;;;;;;;;;;;26.10;56.40;26.30;99671.00;;;;346780;28;91617;-85
2022/08/10 00:25:08;;;;;;;;;;;26.10;56.40;26.20;99673.00;;;;346000;28;83401;-84
2022/08/10 00:25:20;;;;;;;;;;;26.10;56.50;26.20;99670.00;;;;344077;28;90731;-84
2022/08/10 00:25:32;;;;;;;;;;;26.10;56.40;26.20;99674.00;;;;344604;28;83381;-85
2022/08/10 00:25:43;;;;;;;;;;;26.10;56.40;26.20;99674.00;;;;344264;28;88846;-86
2022/08/10 00:25:55;;;;;;;;;;;26.10;56.50;26.30;99671.00;;;;343245;28;82243;-85
2022/08/10 00:26:07;;;;;;;;;;;26.10;56.40;26.30;99679.00;;;;342792;28;90581;-85
2022/08/10 00:26:19;;;;;;;;;;;26.10;56.40;26.20;99675.00;;;;343143;28;83218;-85
2022/08/10 00:26:32;;;;;;;;;;;26.10;56.60;26.30;99673.00;;;;342829;28;88814;-85
2022/08/10 00:27:04;;;;;;;;;;;26.10;56.50;26.20;99684.00;;;;343159;28;83455;-85
2022/08/10 00:27:36;;;;;;;;;;;26.10;56.50;26.20;99677.00;;;;342612;28;92712;-85
2022/08/10 00:28:07;;;;;;;;;;;26.10;56.50;26.20;99679.00;;;;344220;28;83330;-85
2022/08/10 00:28:19;;;;;;;;;;;26.10;56.60;26.20;99669.00;;;;343036;28;89208;-85
2022/08/10 00:28:31;;;;;;;;;;;26.10;56.50;26.20;99672.00;;;;342052;28;83336;-84
2022/08/10 00:28:43;;;;;;;;;;;26.10;56.50;26.30;99671.00;;;;344226;28;92268;-85
2022/08/10 00:28:54;;;;;;;;;;;26.20;56.60;26.30;99674.00;;;;345968;28;83214;-85
2022/08/10 00:29:06;;;;;;;;;;;26.20;56.50;26.10;99675.00;;;;344021;28;90604;-85
2022/08/10 00:29:22;;;;;;;;;;;26.20;56.60;26.20;99671.00;;;;346031;28;83301;-85
2022/08/10 00:29:34;;;;;;;;;;;26.10;56.40;26.10;99672.00;;;;342786;28;89209;-85
2022/08/10 00:29:45;;;;;;;;;;;26.20;56.50;26.00;99673.00;;;;343205;28;83332;-85
2022/08/10 00:29:57;;;;;;;;;;;26.10;56.50;26.10;99670.00;;;;341277;28;92798;-85
2022/08/10 00:30:10;;;;;;;;;;;26.10;56.50;26.20;99672.00;;;;345966;28;83562;-84
2022/08/10 00:30:21;;;;;;;;;;;26.10;56.50;26.30;99664.00;;;;345418;28;91371;-85
2022/08/10 00:30:35;;;;;;;;;;;26.10;56.60;26.30;99679.00;;;;341884;28;82804;-85
2022/08/10 00:30:47;;;;;;;;;;;26.20;56.50;26.30;99670.00;;;;342836;28;92161;-85
2022/08/10 00:30:59;;;;;;;;;;;26.20;56.50;26.30;99669.00;;;;345954;28;83412;-85
2022/08/10 00:31:10;;;;;;;;;;;26.20;56.50;26.20;99671.00;;;;344115;28;91523;-85
2022/08/10 00:31:22;;;;;;;;;;;26.20;56.70;26.10;99676.00;;;;343312;28;82604;-85
2022/08/10 00:31:34;;;;;;;;;;;26.20;56.70;26.10;99674.00;;;;342743;28;89262;-85
2022/08/10 00:32:05;;;;;;;;;;;26.10;56.40;26.10;99676.00;;;;343051;28;83453;-85
2022/08/10 00:32:17;;;;;;;;;;;26.10;56.50;26.10;99671.00;;;;344098;28;89603;-85
2022/08/10 00:32:29;;;;;;;;;;;26.10;56.70;26.10;99678.00;;;;341907;28;83188;-84
2022/08/10 00:32:40;;;;;;;;;;;26.10;56.50;26.10;99675.00;;;;341323;28;89524;-85
2022/08/10 00:32:52;;;;;;;;;;;26.10;56.50;26.10;99669.00;;;;341914;28;82313;-85
2022/08/10 00:33:04;;;;;;;;;;;26.10;56.50;26.10;99679.00;;;;344087;28;90972;-85
2022/08/10 00:33:17;;;;;;;;;;;26.10;56.70;26.10;99676.00;;;;344604;28;83713;-85
2022/08/10 00:33:29;;;;;;;;;;;26.10;56.70;26.10;99673.00;;;;342754;28;90944;-85
2022/08/10 00:33:40;;;;;;;;;;;26.10;56.60;26.10;99674.00;;;;343153;28;83339;-85
2022/08/10 00:33:52;;;;;;;;;;;26.10;56.80;26.10;99673.00;;;;341522;28;88894;-85
2022/08/10 00:34:04;;;;;;;;;;;26.10;56.70;26.20;99673.00;;;;341765;28;83420;-85
2022/08/10 00:34:15;;;;;;;;;;;26.10;56.70;26.10;99677.00;;;;344045;28;91060;-84
2022/08/10 00:34:28;;;;;;;;;;;26.10;56.80;26.10;99674.00;;;;344593;28;83252;-84
2022/08/10 00:34:39;;;;;;;;;;;26.10;56.80;26.10;99674.00;;;;345410;28;89467;-85
2022/08/10 00:34:51;;;;;;;;;;;26.10;56.60;26.10;99675.00;;;;345596;28;83429;-85
2022/08/10 00:35:03;;;;;;;;;;;26.10;56.50;26.00;99672.00;;;;344200;28;89236;-85
2022/08/10 00:35:15;;;;;;;;;;;26.10;56.60;26.00;99680.00;;;;344523;28;82762;-85
2022/08/10 00:35:27;;;;;;;;;;;26.00;56.50;26.00;99679.00;;;;344228;28;88911;-84
2022/08/10 00:35:38;;;;;;;;;;;26.10;56.50;26.00;99673.00;;;;343156;28;83419;-84
2022/08/10 00:35:53;;;;;;;;;;;26.00;56.40;26.00;99675.00;;;;344160;28;91679;-85
2022/08/10 00:36:05;;;;;;;;;;;26.00;56.40;26.10;99678.00;;;;345907;28;83357;-85
2022/08/10 00:36:16;;;;;;;;;;;26.00;56.60;26.10;99672.00;;;;345423;28;89960;-85
2022/08/10 00:36:28;;;;;;;;;;;26.00;56.50;26.10;99672.00;;;;343878;28;83081;-84
2022/08/10 00:36:42;;;;;;;;;;;26.00;56.50;26.00;99677.00;;;;345527;28;89698;-85
2022/08/10 00:36:54;;;;;;;;;;;26.00;56.40;26.10;99674.00;;;;344254;28;83334;-85
2022/08/10 00:37:06;;;;;;;;;;;26.00;56.60;26.20;99681.00;;;;344134;28;89872;-85
2022/08/10 00:37:17;;;;;;;;;;;26.00;56.60;26.20;99669.00;;;;344585;28;83415;-85
2022/08/10 00:37:29;;;;;;;;;;;26.00;56.50;26.20;99674.00;;;;344056;28;91542;-85
2022/08/10 00:37:41;;;;;;;;;;;26.10;56.60;26.10;99678.00;;;;347294;28;83401;-85
2022/08/10 00:38:08;;;;;;;;;;;26.00;56.60;25.90;99677.00;;;;345432;28;92031;-85
2022/08/10 00:38:20;;;;;;;;;;;26.00;56.70;25.80;99670.00;;;;340410;28;83310;-85
2022/08/10 00:38:33;;;;;;;;;;;26.00;57.10;25.80;99669.00;;;;338617;28;88989;-85
2022/08/10 00:38:45;;;;;;;;;;;26.00;57.00;25.90;99667.00;;;;340296;28;83528;-85
2022/08/10 00:38:57;;;;;;;;;;;26.00;56.80;25.90;99669.00;;;;338834;28;89095;-85
2022/08/10 00:39:09;;;;;;;;;;;26.00;56.60;25.90;99681.00;;;;339080;28;83226;-85
2022/08/10 00:39:27;;;;;;;;;;;26.00;56.60;26.00;99673.00;;;;338655;28;89274;-85
2022/08/10 00:39:39;;;;;;;;;;;26.00;56.40;25.90;99677.00;;;;345984;28;83378;-85
2022/08/10 00:39:51;;;;;;;;;;;26.00;56.70;25.80;99671.00;;;;342688;28;89729;-85
2022/08/10 00:40:04;;;;;;;;;;;26.00;56.90;25.80;99672.00;;;;341636;28;83303;-85
2022/08/10 00:40:15;;;;;;;;;;;26.00;57.00;25.80;99672.00;;;;341229;28;88353;-84
2022/08/10 00:40:27;;;;;;;;;;;26.00;57.60;25.70;99679.00;;;;346086;28;83060;-85
2022/08/10 00:40:48;;;;;;;;;;;25.90;57.00;25.80;99664.00;;;;339972;28;93418;-85
2022/08/10 00:41:00;;;;;;;;;;;25.90;56.90;25.80;99670.00;;;;341716;28;83368;-85
2022/08/10 00:41:11;;;;;;;;;;;25.90;56.70;25.90;99672.00;;;;341322;28;89063;-85
2022/08/10 00:41:23;;;;;;;;;;;25.90;56.70;25.80;99665.00;;;;345921;28;83195;-85
2022/08/10 00:41:35;;;;;;;;;;;25.90;56.90;25.80;99669.00;;;;345593;28;89578;-85
2022/08/10 00:41:47;;;;;;;;;;;25.90;56.90;25.80;99677.00;;;;345861;28;83485;-84
2022/08/10 00:42:18;;;;;;;;;;;25.90;56.90;25.60;99679.00;;;;345424;28;89176;-85
2022/08/10 00:42:30;;;;;;;;;;;25.90;57.20;25.60;99677.00;;;;346002;28;82402;-85
2022/08/10 00:42:41;;;;;;;;;;;25.90;57.20;25.70;99675.00;;;;345485;28;89169;-85
2022/08/10 00:42:53;;;;;;;;;;;25.80;57.20;25.60;99676.00;;;;345915;28;83202;-85
2022/08/10 00:43:05;;;;;;;;;;;25.90;57.30;25.70;99678.00;;;;341300;28;89031;-85
2022/08/10 00:43:17;;;;;;;;;;;25.80;57.10;25.70;99675.00;;;;341654;28;83394;-85
2022/08/10 00:43:34;;;;;;;;;;;25.80;56.90;25.70;99674.00;;;;341279;28;89495;-85
2022/08/10 00:43:46;;;;;;;;;;;25.80;57.00;25.60;99681.00;;;;337743;28;83292;-85
2022/08/10 00:43:58;;;;;;;;;;;25.80;57.00;25.70;99676.00;;;;337308;28;89211;-85
2022/08/10 00:44:09;;;;;;;;;;;25.80;57.10;25.80;99668.00;;;;339030;28;83242;-85
2022/08/10 00:44:21;;;;;;;;;;;25.80;57.00;25.90;99674.00;;;;342757;28;89192;-85
2022/08/10 00:44:41;;;;;;;;;;;25.80;57.10;25.90;99680.00;;;;343277;28;82498;-85
2022/08/10 00:44:53;;;;;;;;;;;25.80;57.10;25.90;99674.00;;;;339913;28;89538;-85
2022/08/10 00:45:05;;;;;;;;;;;25.80;57.10;25.90;99682.00;;;;340411;28;83339;-85
2022/08/10 00:45:17;;;;;;;;;;;25.80;57.00;25.90;99671.00;;;;339259;28;89846;-85
2022/08/10 00:45:28;;;;;;;;;;;25.80;57.00;25.90;99673.00;;;;339818;28;83301;-85
2022/08/10 00:45:40;;;;;;;;;;;25.80;57.50;25.90;99669.00;;;;339636;28;89013;-85
2022/08/10 00:45:53;;;;;;;;;;;25.80;57.00;25.90;99676.00;;;;344579;28;83374;-84
2022/08/10 00:46:10;;;;;;;;;;;25.80;57.00;25.90;99683.00;;;;344255;28;89185;-85
2022/08/10 00:46:22;;;;;;;;;;;25.80;56.80;25.80;99669.00;;;;344640;28;83650;-84
2022/08/10 00:46:33;;;;;;;;;;;25.80;56.90;25.80;99674.00;;;;345540;28;89139;-85
2022/08/10 00:46:45;;;;;;;;;;;25.80;57.10;25.80;99676.00;;;;341540;28;84038;-85
2022/08/10 00:47:00;;;;;;;;;;;25.80;57.00;25.70;99668.00;;;;341198;28;90372;-85
2022/08/10 00:47:12;;;;;;;;;;;25.80;57.60;25.70;99676.00;;;;341689;28;83259;-85
2022/08/10 00:47:44;;;;;;;;;;;25.80;57.30;25.80;99678.00;;;;342544;28;92854;-85
2022/08/10 00:47:56;;;;;;;;;;;25.80;57.20;25.90;99667.00;;;;343077;28;83109;-84
2022/08/10 00:48:07;;;;;;;;;;;25.80;57.30;25.90;99671.00;;;;341347;28;88781;-84
2022/08/10 00:48:19;;;;;;;;;;;25.80;57.40;25.90;99675.00;;;;345776;28;82525;-85
2022/08/10 00:48:31;;;;;;;;;;;25.80;57.40;25.90;99669.00;;;;346789;28;89546;-84
2022/08/10 00:48:42;;;;;;;;;;;25.80;57.40;25.90;99671.00;;;;341619;28;82277;-85
2022/08/10 00:48:54;;;;;;;;;;;25.80;57.30;25.90;99676.00;;;;339907;28;91895;-85
2022/08/10 00:49:11;;;;;;;;;;;25.80;57.20;25.90;99675.00;;;;339066;28;82314;-85
2022/08/10 00:49:23;;;;;;;;;;;25.80;57.20;25.70;99667.00;;;;338531;28;91461;-85
2022/08/10 00:49:35;;;;;;;;;;;25.80;57.20;25.70;99673.00;;;;340405;28;83301;-85
2022/08/10 00:49:46;;;;;;;;;;;25.80;57.30;25.70;99679.00;;;;339772;28;89809;-85
2022/08/10 00:49:58;;;;;;;;;;;25.80;57.30;25.70;99687.00;;;;344560;28;82177;-85
2022/08/10 00:50:10;;;;;;;;;;;25.80;57.30;25.80;99679.00;;;;338658;28;89432;-84
2022/08/10 00:50:22;;;;;;;;;;;25.80;57.30;25.60;99680.00;;;;340391;28;82175;-85
2022/08/10 00:50:33;;;;;;;;;;;25.80;57.40;25.70;99672.00;;;;345548;28;91384;-85
2022/08/10 00:50:45;;;;;;;;;;;25.80;57.40;25.80;99673.00;;;;347379;28;83169;-85
2022/08/10 00:50:57;;;;;;;;;;;25.80;57.40;25.80;99676.00;;;;345471;28;89186;-85
2022/08/10 00:51:09;;;;;;;;;;;25.70;57.30;25.70;99683.00;;;;345951;28;82403;-85
2022/08/10 00:51:21;;;;;;;;;;;25.80;57.50;25.80;99677.00;;;;344033;28;89664;-85
2022/08/10 00:51:50;;;;;;;;;;;25.80;57.60;25.70;99676.00;;;;340385;28;83389;-85
2022/08/10 00:52:02;;;;;;;;;;;25.70;57.50;25.60;99678.00;;;;338499;28;89469;-84
2022/08/10 00:52:15;;;;;;;;;;;25.70;57.50;25.70;99680.00;;;;340415;28;83373;-85
2022/08/10 00:52:27;;;;;;;;;;;25.70;57.40;25.80;99676.00;;;;345326;28;89191;-85
2022/08/10 00:52:38;;;;;;;;;;;25.70;57.30;25.80;99674.00;;;;345905;28;83366;-84
2022/08/10 00:52:50;;;;;;;;;;;25.70;57.30;25.80;99673.00;;;;339889;28;87995;-84
2022/08/10 00:53:02;;;;;;;;;;;25.70;57.20;25.90;99671.00;;;;340403;28;83516;-85
2022/08/10 00:53:14;;;;;;;;;;;25.70;57.20;25.80;99676.00;;;;339941;28;88043;-84
2022/08/10 00:53:26;;;;;;;;;;;25.70;57.30;25.80;99674.00;;;;340325;28;83346;-85
2022/08/10 00:53:38;;;;;;;;;;;25.70;57.20;25.80;99674.00;;;;346802;28;92287;-85
2022/08/10 00:53:50;;;;;;;;;;;25.70;57.20;25.80;99674.00;;;;340336;28;83290;-85
2022/08/10 00:54:01;;;;;;;;;;;25.70;57.20;25.60;99681.00;;;;339783;28;88957;-84
2022/08/10 00:54:13;;;;;;;;;;;25.70;57.30;25.50;99675.00;;;;341716;28;83370;-85
2022/08/10 00:54:36;;;;;;;;;;;25.70;57.40;25.50;99676.00;;;;339953;28;89132;-85
2022/08/10 00:54:47;;;;;;;;;;;25.70;57.30;25.60;99679.00;;;;340384;28;82214;-84
2022/08/10 00:54:59;;;;;;;;;;;25.70;57.20;25.60;99672.00;;;;339884;28;90681;-85
2022/08/10 00:55:11;;;;;;;;;;;25.70;57.20;25.60;99680.00;;;;339015;28;82782;-84
2022/08/10 00:55:23;;;;;;;;;;;25.70;57.30;25.70;99685.00;;;;338551;28;89054;-84
2022/08/10 00:55:35;;;;;;;;;;;25.70;57.40;25.70;99680.00;;;;342815;28;83476;-84
2022/08/10 00:56:07;;;;;;;;;;;25.70;57.40;25.70;99675.00;;;;338523;28;91167;-84
2022/08/10 00:56:38;;;;;;;;;;;25.70;57.30;25.80;99680.00;;;;338932;28;83554;-85
2022/08/10 00:57:10;;;;;;;;;;;25.70;57.60;25.70;99682.00;;;;338034;28;92089;-85
2022/08/10 00:57:28;;;;;;;;;;;25.70;57.60;25.70;99679.00;;;;345197;27;83471;-85
2022/08/10 00:57:40;;;;;;;;;;;25.70;57.30;25.70;99672.00;;;;346699;28;89247;-85
2022/08/10 00:57:52;;;;;;;;;;;25.70;57.40;25.60;99681.00;;;;344693;28;82285;-85
2022/08/10 00:58:06;;;;;;;;;;;25.70;57.50;25.50;99677.00;;;;342795;28;89100;-84
2022/08/10 00:58:17;;;;;;;;;;;25.70;57.70;25.50;99679.00;;;;343336;28;82214;-85
2022/08/10 00:58:29;;;;;;;;;;;25.70;57.60;25.60;99678.00;;;;339943;28;88901;-85
2022/08/10 00:58:41;;;;;;;;;;;25.70;57.50;25.70;99676.00;;;;338860;28;83325;-84
2022/08/10 00:58:53;;;;;;;;;;;25.60;57.40;25.60;99678.00;;;;337252;28;92183;-84
2022/08/10 00:59:04;;;;;;;;;;;25.60;57.40;25.60;99677.00;;;;344435;28;83195;-85
2022/08/10 00:59:16;;;;;;;;;;;25.70;57.50;25.50;99674.00;;;;341255;28;89930;-84
2022/08/10 00:59:29;;;;;;;;;;;25.70;58.00;25.50;99681.00;;;;347353;27;83220;-85
2022/08/10 00:59:41;;;;;;;;;;;25.60;57.50;25.60;99680.00;;;;345591;28;88843;-85
2022/08/10 01:00:10;;;;;;;;;;;25.60;57.50;25.50;99678.00;;;;343140;28;83545;-85
2022/08/10 01:00:23;;;;;;;;;;;25.60;57.50;25.50;99683.00;;;;341407;28;92002;-84
2022/08/10 01:00:34;;;;;;;;;;;25.60;57.70;25.50;99676.00;;;;344541;28;83328;-84
2022/08/10 01:00:47;;;;;;;;;;;25.60;57.70;25.50;99678.00;;;;346960;28;88810;-84
2022/08/10 01:00:58;;;;;;;;;;;25.60;57.60;25.50;99677.00;;;;347353;28;83292;-85
2022/08/10 01:01:10;;;;;;;;;;;25.60;57.60;25.60;99677.00;;;;340033;28;88768;-85
2022/08/10 01:01:42;;;;;;;;;;;25.60;57.30;25.50;99678.00;;;;343080;28;83415;-85
2022/08/10 01:02:14;;;;;;;;;;;25.60;57.60;25.70;99679.00;;;;338525;28;91413;-84
2022/08/10 01:02:27;;;;;;;;;;;25.60;57.60;25.60;99675.00;;;;339060;28;83382;-84
2022/08/10 01:02:40;;;;;;;;;;;25.60;57.60;25.50;99677.00;;;;337241;28;89686;-85
2022/08/10 01:02:51;;;;;;;;;;;25.60;57.70;25.50;99679.00;;;;343249;28;83350;-84
2022/08/10 01:03:03;;;;;;;;;;;25.60;57.70;25.60;99675.00;;;;345581;28;88801;-84
2022/08/10 01:03:15;;;;;;;;;;;25.60;57.60;25.50;99676.00;;;;345927;28;83248;-84
2022/08/10 01:03:47;;;;;;;;;;;25.60;57.80;25.50;99684.00;;;;344245;28;91006;-84
2022/08/10 01:04:19;;;;;;;;;;;25.50;57.70;25.60;99678.00;;;;344549;28;82591;-85
2022/08/10 01:04:50;;;;;;;;;;;25.60;57.80;25.60;99679.00;;;;341418;28;91029;-85
2022/08/10 01:05:13;;;;;;;;;;;25.60;57.60;25.60;99681.00;;;;347493;28;82551;-85
2022/08/10 01:05:25;;;;;;;;;;;25.50;57.70;25.50;99675.00;;;;346804;28;90003;-84
2022/08/10 01:05:41;;;;;;;;;;;25.60;58.00;25.50;99680.00;;;;341568;28;83456;-85
2022/08/10 01:06:29;;;;;;;;;;;25.50;57.80;25.50;99688.00;;;;341939;28;92512;-85
2022/08/10 01:06:45;;;;;;;;;;;25.50;57.90;25.60;99679.00;;;;344330;28;83341;-85
2022/08/10 01:07:34;;;;;;;;;;;25.60;58.00;25.60;99681.00;;;;342712;28;89176;-84
2022/08/10 01:07:57;;;;;;;;;;;25.50;57.90;25.50;99686.00;;;;338032;28;83390;-84
2022/08/10 01:08:20;;;;;;;;;;;25.50;57.80;25.60;99687.00;;;;338592;28;89010;-84
2022/08/10 01:08:46;;;;;;;;;;;25.60;58.00;25.60;99678.00;;;;337671;28;83278;-84
2022/08/10 01:09:36;;;;;;;;;;;25.50;58.00;25.60;99687.00;;;;337089;28;92070;-85
2022/08/10 01:10:06;;;;;;;;;;;25.50;58.00;25.60;99688.00;;;;339276;28;82531;-84
2022/08/10 01:10:55;;;;;;;;;;;25.50;58.10;25.50;99687.00;;;;339981;28;90455;-84
2022/08/10 01:11:13;;;;;;;;;;;25.50;57.80;25.40;99681.00;;;;341803;28;83293;-84
2022/08/10 01:12:15;;;;;;;;;;;25.50;58.20;25.30;99691.00;;;;338731;28;90098;-84
2022/08/10 01:13:12;;;;;;;;;;;25.50;58.30;25.30;99687.00;;;;337759;28;82567;-85
2022/08/10 01:13:28;;;;;;;;;;;25.50;58.30;25.20;99687.00;;;;338385;28;87991;-85
2022/08/10 01:14:08;;;;;;;;;;;25.40;58.50;25.40;99683.00;;;;339140;28;82513;-84
2022/08/10 01:14:32;;;;;;;;;;;25.40;58.40;25.40;99685.00;;;;338754;28;89400;-85
2022/08/10 01:14:48;;;;;;;;;;;25.40;58.60;25.30;99680.00;;;;338943;28;83415;-84
2022/08/10 01:15:10;;;;;;;;;;;25.40;58.60;25.30;99678.00;;;;337335;28;92438;-84